createdAt,value
2023-01-25T00:00:30.614Z,91.60
2023-01-25T00:02:57.452Z,91.60
2023-01-25T00:05:24.645Z,92.00
2023-01-25T00:07:51.520Z,91.20
2023-01-25T00:10:18.610Z,91.20
2023-01-25T00:12:45.414Z,91.20
2023-01-25T00:15:12.455Z,91.30
2023-01-25T00:17:39.353Z,91.20
2023-01-25T00:20:07.183Z,90.60
2023-01-25T00:22:34.014Z,90.90
2023-01-25T00:25:00.889Z,91.20
2023-01-25T00:27:27.700Z,91.10
2023-01-25T00:29:54.438Z,91.20
2023-01-25T00:32:21.323Z,91.30
2023-01-25T00:34:52.201Z,91.60
2023-01-25T00:37:36.777Z,91.60
2023-01-25T00:40:05.023Z,91.90
2023-01-25T00:42:31.968Z,91.20
2023-01-25T00:44:58.750Z,91.20
2023-01-25T00:47:25.653Z,91.40
2023-01-25T00:49:52.555Z,91.60
2023-01-25T00:52:19.319Z,91.40
2023-01-25T00:54:46.273Z,91.50
2023-01-25T00:57:13.100Z,91.50
2023-01-25T00:59:44.475Z,91.70
2023-01-25T01:02:12.248Z,91.50
2023-01-25T01:04:39.227Z,91.60
2023-01-25T01:07:06.428Z,91.40
2023-01-25T01:09:33.580Z,91.60
2023-01-25T01:12:01.164Z,91.40
2023-01-25T01:14:28.021Z,91.50
2023-01-25T01:16:57.094Z,91.70
2023-01-25T01:19:24.874Z,91.50
2023-01-25T01:21:51.695Z,91.70
2023-01-25T01:24:18.629Z,91.50
2023-01-25T01:26:45.539Z,91.50
2023-01-25T01:29:13.929Z,91.60
2023-01-25T01:31:40.937Z,91.70
2023-01-25T01:34:07.836Z,91.60
2023-01-25T01:36:34.701Z,91.90
2023-01-25T01:39:01.579Z,91.50
2023-01-25T01:41:28.338Z,91.50
2023-01-25T01:43:55.224Z,91.80
2023-01-25T01:46:37.545Z,91.50
2023-01-25T01:49:04.488Z,91.60
2023-01-25T01:51:52.339Z,91.70
2023-01-25T01:54:29.166Z,91.70
2023-01-25T01:57:00.034Z,92.40
2023-01-25T01:59:33.232Z,92.00
2023-01-25T02:02:00.104Z,91.80
2023-01-25T02:04:28.536Z,91.60
2023-01-25T02:07:05.859Z,91.60
2023-01-25T02:09:36.251Z,91.60
2023-01-25T02:12:04.883Z,91.90
2023-01-25T02:14:31.837Z,91.70
2023-01-25T02:16:59.244Z,91.30
2023-01-25T02:19:52.984Z,91.60
2023-01-25T02:22:25.968Z,91.50
2023-01-25T02:25:09.755Z,91.80
2023-01-25T02:27:42.189Z,92.00
2023-01-25T02:30:09.816Z,92.10
2023-01-25T02:32:36.680Z,91.90
2023-01-25T02:35:03.514Z,92.00
2023-01-25T02:37:30.357Z,92.40
2023-01-25T02:39:57.133Z,92.40
2023-01-25T02:42:24.002Z,92.40
2023-01-25T02:44:51.835Z,92.20
2023-01-25T02:47:18.773Z,91.70
2023-01-25T02:49:45.570Z,92.20
2023-01-25T02:52:12.539Z,92.10
2023-01-25T02:54:39.375Z,92.00
2023-01-25T02:57:06.609Z,91.90
2023-01-25T02:59:33.352Z,91.90
2023-01-25T03:02:00.139Z,92.00
2023-01-25T03:04:26.997Z,92.10
2023-01-25T03:06:53.873Z,92.00
2023-01-25T03:09:20.699Z,91.60
2023-01-25T03:11:47.497Z,92.00
2023-01-25T03:14:14.458Z,92.20
2023-01-25T03:16:41.344Z,92.30
2023-01-25T03:19:08.119Z,92.00
2023-01-25T03:21:34.861Z,92.00
2023-01-25T03:24:03.110Z,92.70
2023-01-25T03:26:30.684Z,92.80
2023-01-25T03:28:57.649Z,92.30
2023-01-25T03:31:25.046Z,92.40
2023-01-25T03:33:51.923Z,92.90
2023-01-25T03:36:18.876Z,92.90
2023-01-25T03:38:45.696Z,92.60
2023-01-25T03:41:13.891Z,92.30
2023-01-25T03:43:40.848Z,92.30
2023-01-25T03:46:07.922Z,92.00
2023-01-25T03:48:34.831Z,92.30
2023-01-25T03:51:01.848Z,92.60
2023-01-25T03:53:30.355Z,92.10
2023-01-25T03:56:08.400Z,92.30
2023-01-25T03:58:36.764Z,92.30
2023-01-25T04:01:05.346Z,92.40
2023-01-25T04:03:32.873Z,92.20
2023-01-25T04:05:59.927Z,92.40
2023-01-25T04:08:27.231Z,92.40
2023-01-25T04:10:56.258Z,92.50
2023-01-25T04:13:25.806Z,92.40
2023-01-25T04:15:52.918Z,92.40
2023-01-25T04:18:20.169Z,92.70
2023-01-25T04:20:52.577Z,92.70
2023-01-25T04:23:19.650Z,93.00
2023-01-25T04:26:14.476Z,93.10
2023-01-25T04:28:41.642Z,93.20
2023-01-25T04:31:08.521Z,93.50
2023-01-25T04:33:35.750Z,93.50
2023-01-25T04:36:03.059Z,93.50
2023-01-25T04:38:29.869Z,93.80
2023-01-25T04:40:56.755Z,94.10
2023-01-25T04:43:25.073Z,94.00
2023-01-25T04:45:51.989Z,93.90
2023-01-25T04:48:19.124Z,94.10
2023-01-25T04:50:46.388Z,94.30
2023-01-25T04:53:13.643Z,94.20
2023-01-25T04:55:40.674Z,94.20
2023-01-25T04:58:07.580Z,93.80
2023-01-25T05:00:34.695Z,93.70
2023-01-25T05:03:01.736Z,93.80
2023-01-25T05:05:28.529Z,93.80
2023-01-25T05:07:55.283Z,93.90
2023-01-25T05:10:22.173Z,93.80
2023-01-25T05:12:48.898Z,93.60
2023-01-25T05:15:15.730Z,93.60
2023-01-25T05:17:42.588Z,93.90
2023-01-25T05:20:10.232Z,94.00
2023-01-25T05:22:37.031Z,94.10
2023-01-25T05:25:06.286Z,94.00
2023-01-25T05:27:33.157Z,94.30
2023-01-25T05:30:00.028Z,93.90
2023-01-25T05:32:26.895Z,93.90
2023-01-25T05:34:53.709Z,93.90
2023-01-25T05:37:21.528Z,93.90
2023-01-25T05:39:48.475Z,93.90
2023-01-25T05:42:17.634Z,94.00
2023-01-25T05:44:47.335Z,94.20
2023-01-25T05:47:17.501Z,94.00
2023-01-25T05:49:44.428Z,94.30
2023-01-25T05:52:15.472Z,93.80
2023-01-25T05:54:42.420Z,93.90
2023-01-25T05:57:09.403Z,93.60
2023-01-25T05:59:36.395Z,93.70
2023-01-25T06:02:03.224Z,93.50
2023-01-25T06:04:30.028Z,93.30
2023-01-25T06:06:58.280Z,93.50
2023-01-25T06:09:27.066Z,93.50
2023-01-25T06:11:53.975Z,93.60
2023-01-25T06:14:20.823Z,93.80
2023-01-25T06:16:47.654Z,93.80
2023-01-25T06:19:14.480Z,93.80
2023-01-25T06:21:41.336Z,93.70
2023-01-25T06:24:08.316Z,93.70
2023-01-25T06:26:35.264Z,93.60
2023-01-25T06:29:02.104Z,93.40
2023-01-25T06:31:29.094Z,93.40
2023-01-25T06:33:56.084Z,93.60
2023-01-25T06:36:22.951Z,93.50
2023-01-25T06:38:51.619Z,93.50
2023-01-25T06:41:19.343Z,93.60
2023-01-25T06:43:46.896Z,93.70
2023-01-25T06:46:13.933Z,93.70
2023-01-25T06:48:44.497Z,93.90
2023-01-25T06:51:13.787Z,93.70
2023-01-25T06:53:43.261Z,93.80
2023-01-25T06:56:12.970Z,93.80
2023-01-25T06:58:40.532Z,93.90
2023-01-25T07:01:13.783Z,93.90
2023-01-25T07:03:41.260Z,93.90
2023-01-25T07:06:10.404Z,93.60
2023-01-25T07:08:38.238Z,93.70
2023-01-25T07:11:07.215Z,93.60
2023-01-25T07:13:34.588Z,93.80
2023-01-25T07:16:04.163Z,93.60
2023-01-25T07:18:32.547Z,93.70
2023-01-25T07:21:23.477Z,94.00
2023-01-25T07:23:52.090Z,93.70
2023-01-25T07:26:24.735Z,93.70
2023-01-25T07:28:52.860Z,94.00
2023-01-25T07:31:20.937Z,94.10
2023-01-25T07:33:49.872Z,94.10
2023-01-25T07:36:17.011Z,94.20
2023-01-25T07:38:43.919Z,94.20
2023-01-25T07:41:10.914Z,94.30
2023-01-25T07:43:37.901Z,94.10
2023-01-25T07:46:07.631Z,94.30
2023-01-25T07:48:34.662Z,94.40
2023-01-25T07:51:12.603Z,94.50
2023-01-25T07:53:40.940Z,94.50
2023-01-25T07:56:09.197Z,94.80
2023-01-25T07:58:36.123Z,95.10
2023-01-25T08:01:14.814Z,94.80
2023-01-25T08:03:42.486Z,95.10
2023-01-25T08:06:10.920Z,95.20
2023-01-25T08:08:44.888Z,94.70
2023-01-25T08:11:17.318Z,94.60
2023-01-25T08:13:47.292Z,94.70
2023-01-25T08:16:14.859Z,94.80
2023-01-25T08:18:41.676Z,94.60
2023-01-25T08:21:08.773Z,94.10
2023-01-25T08:23:36.036Z,94.50
2023-01-25T08:26:07.706Z,94.20
2023-01-25T08:28:35.789Z,94.30
2023-01-25T08:31:21.165Z,94.30
2023-01-25T08:33:48.597Z,94.30
2023-01-25T08:36:18.299Z,94.50
2023-01-25T08:38:46.699Z,94.40
2023-01-25T08:41:15.723Z,94.30
2023-01-25T08:43:44.738Z,93.60
2023-01-25T08:46:12.569Z,94.00
2023-01-25T08:48:39.473Z,93.80
2023-01-25T08:51:09.028Z,93.10
2023-01-25T08:53:35.839Z,93.40
2023-01-25T08:56:07.897Z,93.40
2023-01-25T08:58:36.740Z,93.40
2023-01-25T09:01:08.871Z,93.30
2023-01-25T09:03:37.830Z,93.70
2023-01-25T09:06:05.061Z,93.40
2023-01-25T09:08:32.529Z,93.70
2023-01-25T09:11:13.748Z,93.50
2023-01-25T09:13:43.556Z,93.90
2023-01-25T09:16:16.745Z,93.80
2023-01-25T09:18:44.754Z,93.10
2023-01-25T09:21:20.507Z,93.30
2023-01-25T09:24:05.583Z,93.00
2023-01-25T09:26:35.592Z,92.80
2023-01-25T09:29:03.043Z,92.80
2023-01-25T09:31:30.386Z,92.50
2023-01-25T09:33:58.390Z,92.70
2023-01-25T09:36:25.408Z,92.70
2023-01-25T09:38:52.510Z,92.40
2023-01-25T09:41:22.194Z,92.60
2023-01-25T09:44:14.810Z,92.60
2023-01-25T09:46:53.186Z,92.40
2023-01-25T09:49:26.102Z,92.70
2023-01-25T09:52:30.792Z,92.80
2023-01-25T09:54:58.846Z,92.60
2023-01-25T09:57:35.356Z,92.50
2023-01-25T10:00:15.458Z,92.60
2023-01-25T10:02:54.955Z,92.50
2023-01-25T10:05:32.397Z,93.50
2023-01-25T10:08:32.449Z,92.90
2023-01-25T10:11:11.967Z,93.00
2023-01-25T10:13:38.759Z,93.20
2023-01-25T10:16:25.938Z,92.70
2023-01-25T10:19:30.019Z,93.00
2023-01-25T10:22:05.229Z,92.90
2023-01-25T10:24:52.785Z,92.50
2023-01-25T10:27:50.060Z,92.60
2023-01-25T10:30:34.239Z,92.50
2023-01-25T10:33:07.634Z,92.90
2023-01-25T10:35:45.759Z,92.70
2023-01-25T10:38:32.670Z,92.70
2023-01-25T10:41:48.033Z,93.20
2023-01-25T10:44:27.894Z,92.80
2023-01-25T10:47:34.175Z,92.90
2023-01-25T10:50:01.090Z,92.70
2023-01-25T10:52:30.801Z,92.50
2023-01-25T10:55:15.145Z,92.40
2023-01-25T10:57:50.437Z,92.60
2023-01-25T11:00:52.847Z,92.20
2023-01-25T11:03:20.931Z,91.80
2023-01-25T11:05:55.812Z,92.20
2023-01-25T11:08:31.924Z,92.00
2023-01-25T11:11:00.475Z,91.80
2023-01-25T11:13:33.091Z,91.50
2023-01-25T11:16:04.927Z,90.90
2023-01-25T11:18:38.274Z,90.70
2023-01-25T11:21:05.100Z,91.70
2023-01-25T11:23:34.528Z,90.90
2023-01-25T11:26:17.719Z,91.00
2023-01-25T11:28:46.077Z,91.10
2023-01-25T11:31:14.701Z,90.70
2023-01-25T11:33:42.313Z,91.20
2023-01-25T11:36:40.270Z,91.00
2023-01-25T11:39:27.399Z,91.20
2023-01-25T11:42:11.997Z,91.30
2023-01-25T11:44:57.616Z,91.40
2023-01-25T11:47:39.872Z,91.80
2023-01-25T11:50:34.411Z,92.20
2023-01-25T11:53:22.734Z,91.30
2023-01-25T11:55:58.088Z,91.50
2023-01-25T11:58:43.189Z,91.90
2023-01-25T12:01:28.518Z,92.10
2023-01-25T12:04:15.006Z,91.40
2023-01-25T12:06:44.759Z,91.70
2023-01-25T12:09:37.574Z,91.80
2023-01-25T12:12:12.192Z,91.70
2023-01-25T12:15:07.517Z,91.70
2023-01-25T12:17:55.966Z,91.00
2023-01-25T12:20:44.729Z,90.70
2023-01-25T12:23:52.990Z,91.00
2023-01-25T12:26:44.180Z,91.30
2023-01-25T12:29:29.847Z,91.70
2023-01-25T12:32:09.224Z,91.80
2023-01-25T12:34:39.982Z,91.60
2023-01-25T12:37:18.526Z,91.80
2023-01-25T12:40:06.943Z,91.80
2023-01-25T12:42:42.448Z,91.80
2023-01-25T12:45:15.816Z,91.90
2023-01-25T12:47:49.300Z,91.80
2023-01-25T12:50:18.713Z,91.60
2023-01-25T12:52:50.487Z,91.80
2023-01-25T12:55:18.543Z,91.60
2023-01-25T12:58:03.448Z,92.00
2023-01-25T13:00:56.464Z,92.20
2023-01-25T13:03:54.114Z,92.30
2023-01-25T13:07:00.256Z,92.30
2023-01-25T13:09:42.240Z,92.20
2023-01-25T13:12:11.791Z,92.20
2023-01-25T13:14:40.635Z,91.90
2023-01-25T13:17:30.627Z,91.90
2023-01-25T13:19:57.485Z,92.30
2023-01-25T13:22:45.778Z,92.00
2023-01-25T13:25:23.757Z,91.70
2023-01-25T13:27:50.652Z,92.00
2023-01-25T13:30:34.619Z,91.60
2023-01-25T13:33:04.501Z,91.70
2023-01-25T13:35:32.846Z,91.90
2023-01-25T13:38:19.603Z,92.30
2023-01-25T13:41:01.408Z,92.40
2023-01-25T13:43:28.393Z,92.40
2023-01-25T13:45:55.328Z,92.80
2023-01-25T13:48:24.932Z,92.70
2023-01-25T13:50:59.339Z,92.70
2023-01-25T13:53:33.395Z,92.70
2023-01-25T13:56:01.451Z,92.40
2023-01-25T13:58:31.107Z,92.60
2023-01-25T14:01:06.459Z,92.70
2023-01-25T14:03:59.768Z,92.70
2023-01-25T14:06:31.085Z,93.00
2023-01-25T14:09:02.956Z,93.00
2023-01-25T14:11:31.855Z,93.20
2023-01-25T14:14:15.183Z,93.20
2023-01-25T14:16:41.974Z,93.40
2023-01-25T14:19:29.743Z,93.40
2023-01-25T14:22:14.526Z,92.80
2023-01-25T14:24:41.468Z,92.60
2023-01-25T14:27:14.987Z,93.00
2023-01-25T14:29:42.086Z,93.40
2023-01-25T14:32:18.137Z,93.10
2023-01-25T14:34:45.012Z,93.40
2023-01-25T14:37:20.934Z,93.50
2023-01-25T14:39:49.368Z,93.30
2023-01-25T14:42:17.347Z,93.40
2023-01-25T14:44:45.475Z,93.50
2023-01-25T14:47:32.369Z,93.90
2023-01-25T14:50:30.432Z,93.90
2023-01-25T14:53:08.753Z,93.90
2023-01-25T14:55:37.018Z,94.10
2023-01-25T14:58:04.017Z,93.70
2023-01-25T15:00:35.900Z,93.70
2023-01-25T15:03:06.115Z,93.70
2023-01-25T15:05:35.860Z,93.90
2023-01-25T15:08:08.848Z,93.70
2023-01-25T15:10:37.562Z,94.00
2023-01-25T15:13:23.111Z,94.40
2023-01-25T15:16:01.130Z,94.50
2023-01-25T15:18:53.919Z,94.80
2023-01-25T15:21:26.631Z,94.70
2023-01-25T15:23:55.389Z,94.80
2023-01-25T15:26:24.820Z,94.90
2023-01-25T15:28:54.480Z,95.00
2023-01-25T15:31:26.601Z,94.90
2023-01-25T15:33:54.303Z,95.00
2023-01-25T15:36:21.178Z,95.00
2023-01-25T15:38:48.041Z,95.00
2023-01-25T15:41:15.394Z,95.10
2023-01-25T15:43:42.570Z,95.00
2023-01-25T15:46:26.409Z,94.50
2023-01-25T15:48:54.351Z,94.30
2023-01-25T15:51:22.110Z,94.50
2023-01-25T15:53:49.328Z,94.90
2023-01-25T15:56:22.249Z,94.90
2023-01-25T15:58:54.396Z,95.00
2023-01-25T16:01:22.953Z,95.00
2023-01-25T16:03:50.053Z,95.10
2023-01-25T16:06:31.910Z,94.80
2023-01-25T16:09:00.477Z,94.80
2023-01-25T16:11:27.772Z,95.10
2023-01-25T16:13:54.693Z,95.10
2023-01-25T16:16:23.879Z,95.10
2023-01-25T16:18:50.762Z,94.90
2023-01-25T16:21:17.616Z,95.00
2023-01-25T16:23:44.427Z,94.90
2023-01-25T16:26:29.623Z,94.50
2023-01-25T16:28:56.869Z,94.70
2023-01-25T16:31:32.291Z,94.50
2023-01-25T16:34:00.390Z,94.40
2023-01-25T16:36:27.298Z,94.60
2023-01-25T16:38:54.136Z,94.60
2023-01-25T16:41:21.015Z,94.40
2023-01-25T16:43:49.019Z,94.70
2023-01-25T16:46:18.873Z,94.70
2023-01-25T16:48:47.082Z,94.50
2023-01-25T16:51:22.682Z,94.70
2023-01-25T16:53:51.302Z,94.90
2023-01-25T16:56:23.726Z,94.60
2023-01-25T16:58:51.711Z,94.60
2023-01-25T17:01:20.831Z,94.70
2023-01-25T17:03:48.488Z,94.70
2023-01-25T17:06:20.260Z,94.80
2023-01-25T17:08:48.004Z,95.00
2023-01-25T17:11:15.988Z,94.90
2023-01-25T17:13:42.821Z,95.00
2023-01-25T17:16:09.759Z,94.90
2023-01-25T17:18:36.523Z,94.70
2023-01-25T17:21:06.586Z,94.90
2023-01-25T17:23:35.331Z,95.10
2023-01-25T17:26:11.142Z,95.20
2023-01-25T17:28:38.041Z,95.20
2023-01-25T17:31:05.429Z,95.40
2023-01-25T17:33:32.319Z,95.50
2023-01-25T17:36:02.948Z,95.60
2023-01-25T17:38:30.132Z,95.60
2023-01-25T17:40:57.019Z,95.80
2023-01-25T17:43:23.917Z,95.90
2023-01-25T17:45:50.747Z,95.70
2023-01-25T17:48:17.610Z,95.60
2023-01-25T17:50:44.447Z,95.60
2023-01-25T17:53:11.479Z,95.60
2023-01-25T17:55:39.017Z,95.60
2023-01-25T17:58:06.134Z,95.80
2023-01-25T18:00:32.986Z,95.70
2023-01-25T18:03:00.011Z,95.90
2023-01-25T18:05:29.712Z,95.60
2023-01-25T18:07:56.592Z,95.60
2023-01-25T18:10:23.491Z,95.80
2023-01-25T18:13:03.753Z,95.80
2023-01-25T18:15:31.766Z,95.90
2023-01-25T18:17:59.500Z,96.10
2023-01-25T18:20:26.460Z,96.10
2023-01-25T18:22:54.119Z,96.30
2023-01-25T18:25:34.388Z,96.30
2023-01-25T18:28:01.412Z,96.40
2023-01-25T18:30:28.511Z,96.50
2023-01-25T18:32:55.979Z,96.70
2023-01-25T18:35:24.208Z,96.70
2023-01-25T18:37:51.832Z,96.90
2023-01-25T18:40:19.949Z,96.80
2023-01-25T18:42:46.993Z,96.70
2023-01-25T18:45:14.013Z,96.90
2023-01-25T18:47:41.174Z,96.80
2023-01-25T18:50:09.137Z,96.60
2023-01-25T18:52:36.224Z,96.80
2023-01-25T18:55:03.199Z,96.60
2023-01-25T18:57:30.134Z,96.80
2023-01-25T18:59:58.959Z,96.70
2023-01-25T19:02:27.124Z,97.00
2023-01-25T19:04:53.992Z,96.80
2023-01-25T19:07:21.063Z,96.90
2023-01-25T19:09:48.011Z,97.00
2023-01-25T19:12:14.917Z,96.60
2023-01-25T19:18:07.266Z,96.80
2023-01-25T19:20:34.424Z,96.50
2023-01-25T19:23:01.875Z,96.60
2023-01-25T19:25:30.649Z,97.00
2023-01-25T19:27:57.620Z,97.10
2023-01-25T19:30:24.489Z,97.10
2023-01-25T19:32:51.305Z,97.40
2023-01-25T19:35:18.251Z,97.30
2023-01-25T19:37:44.995Z,97.40
2023-01-25T19:40:12.713Z,97.40
2023-01-25T19:42:39.623Z,97.50
2023-01-25T19:45:06.881Z,97.40
2023-01-25T19:47:33.782Z,97.40
2023-01-25T19:50:02.692Z,97.50
2023-01-25T19:52:29.485Z,97.40
2023-01-25T19:54:56.436Z,97.40
2023-01-25T19:57:23.357Z,97.50
2023-01-25T19:59:50.228Z,97.50
2023-01-25T20:02:17.169Z,97.50
2023-01-25T20:04:43.958Z,97.40
2023-01-25T20:07:10.780Z,97.40
2023-01-25T20:09:37.651Z,97.50
2023-01-25T20:12:07.881Z,97.60
2023-01-25T20:14:36.207Z,97.70
2023-01-25T20:17:03.148Z,97.80
2023-01-25T20:19:30.398Z,97.80
2023-01-25T20:21:59.449Z,97.90
2023-01-25T20:24:27.267Z,97.90
2023-01-25T20:26:54.759Z,97.90
2023-01-25T20:29:22.266Z,97.70
2023-01-25T20:31:49.144Z,97.90
2023-01-25T20:34:21.942Z,98.00
2023-01-25T20:36:50.072Z,98.10
2023-01-25T20:39:19.759Z,98.20
2023-01-25T20:41:47.142Z,98.40
2023-01-25T20:44:17.012Z,98.40
2023-01-25T20:46:44.654Z,98.50
2023-01-25T20:49:15.599Z,98.60
2023-01-25T20:51:42.894Z,98.60
2023-01-25T20:54:10.055Z,98.70
2023-01-25T20:56:37.134Z,98.70
2023-01-25T20:59:04.108Z,98.70
2023-01-25T21:01:36.651Z,98.80
2023-01-25T21:04:06.265Z,98.80
2023-01-25T21:06:35.412Z,98.90
2023-01-25T21:09:03.622Z,98.80
2023-01-25T21:11:30.675Z,99.00
2023-01-25T21:13:59.755Z,99.20
2023-01-25T21:16:27.079Z,99.30
2023-01-25T21:18:59.426Z,99.40
2023-01-25T21:21:31.332Z,99.70
2023-01-25T21:24:00.132Z,99.80
2023-01-25T21:26:29.679Z,100.00
2023-01-25T21:28:57.957Z,100.00
2023-01-25T21:31:32.668Z,100.00
2023-01-25T21:34:00.736Z,100.00
2023-01-25T21:36:28.387Z,100.00
2023-01-25T21:38:55.532Z,100.00
2023-01-25T21:41:30.640Z,100.00
2023-01-25T21:44:17.816Z,100.00
2023-01-25T21:47:04.193Z,100.00
2023-01-25T21:50:01.548Z,100.00
2023-01-25T21:52:28.557Z,100.00
2023-01-25T21:54:55.398Z,100.00
2023-01-25T21:57:22.268Z,100.00
2023-01-25T21:59:49.186Z,100.00
2023-01-25T22:02:16.069Z,100.00
2023-01-25T22:04:44.170Z,100.00
2023-01-25T22:07:11.560Z,100.00
2023-01-25T22:09:38.322Z,100.00
2023-01-25T22:12:05.240Z,100.00
2023-01-25T22:14:32.116Z,100.00
2023-01-25T22:16:58.972Z,100.00
2023-01-25T22:19:25.985Z,100.00
2023-01-25T22:21:52.736Z,100.00
2023-01-25T22:24:19.740Z,100.00
2023-01-25T22:27:08.350Z,100.00
2023-01-25T22:29:35.134Z,100.00
2023-01-25T22:32:02.432Z,100.00
2023-01-25T22:34:29.316Z,100.00
2023-01-25T22:36:56.070Z,100.00
2023-01-25T22:39:22.835Z,100.00
2023-01-25T22:41:49.712Z,100.00
2023-01-25T22:44:16.618Z,100.00
2023-01-25T22:46:43.461Z,100.00
2023-01-25T22:49:10.264Z,100.00
2023-01-25T22:51:36.977Z,100.00
2023-01-25T22:54:03.835Z,100.00
2023-01-25T22:56:33.071Z,100.00
2023-01-25T22:59:01.113Z,100.00
2023-01-25T23:01:31.036Z,100.00
2023-01-25T23:03:58.579Z,100.00
2023-01-25T23:06:29.117Z,100.00
2023-01-25T23:08:57.672Z,100.00
2023-01-25T23:11:25.868Z,100.00
2023-01-25T23:14:11.948Z,100.00
2023-01-25T23:16:38.684Z,100.00
2023-01-25T23:19:05.894Z,100.00
2023-01-25T23:21:33.436Z,100.00
2023-01-25T23:24:01.566Z,100.00
2023-01-25T23:26:37.474Z,100.00
2023-01-25T23:29:07.189Z,100.00
2023-01-25T23:31:34.171Z,100.00
2023-01-25T23:34:03.216Z,100.00
2023-01-25T23:36:35.465Z,100.00
2023-01-25T23:39:02.605Z,100.00
2023-01-25T23:41:30.436Z,100.00
2023-01-25T23:43:58.062Z,100.00
2023-01-25T23:46:25.593Z,100.00
2023-01-25T23:48:52.702Z,100.00
2023-01-25T23:51:20.027Z,100.00
2023-01-25T23:53:47.225Z,100.00
2023-01-25T23:56:17.072Z,100.00
2023-01-25T23:58:44.782Z,100.00
